sensor_id;sensor_type;location;lat;lon;timestamp;P1;durP1;ratioP1;P2;durP2;ratioP2
42110;SDS011;27766;52.174;5.456;2023-06-14T00:01:51;2.92;;;1.80;;
42110;SDS011;27766;52.174;5.456;2023-06-14T00:04:19;4.50;;;2.15;;
42110;SDS011;27766;52.174;5.456;2023-06-14T00:06:47;4.90;;;2.20;;
42110;SDS011;27766;52.174;5.456;2023-06-14T00:09:17;4.53;;;1.83;;
42110;SDS011;27766;52.174;5.456;2023-06-14T00:11:45;3.03;;;1.88;;
42110;SDS011;27766;52.174;5.456;2023-06-14T00:14:12;3.67;;;1.67;;
42110;SDS011;27766;52.174;5.456;2023-06-14T00:16:40;4.28;;;2.00;;
42110;SDS011;27766;52.174;5.456;2023-06-14T00:19:09;3.10;;;1.90;;
42110;SDS011;27766;52.174;5.456;2023-06-14T00:21:38;3.35;;;1.77;;
42110;SDS011;27766;52.174;5.456;2023-06-14T00:24:05;3.08;;;2.17;;
42110;SDS011;27766;52.174;5.456;2023-06-14T00:26:32;2.38;;;1.92;;
42110;SDS011;27766;52.174;5.456;2023-06-14T00:29:00;2.80;;;1.98;;
42110;SDS011;27766;52.174;5.456;2023-06-14T00:31:27;2.30;;;1.77;;
42110;SDS011;27766;52.174;5.456;2023-06-14T00:33:55;5.22;;;1.55;;
42110;SDS011;27766;52.174;5.456;2023-06-14T00:36:22;2.90;;;1.88;;
42110;SDS011;27766;52.174;5.456;2023-06-14T00:38:49;4.32;;;2.25;;
42110;SDS011;27766;52.174;5.456;2023-06-14T00:41:16;4.22;;;2.03;;
42110;SDS011;27766;52.174;5.456;2023-06-14T00:43:44;3.72;;;1.80;;
42110;SDS011;27766;52.174;5.456;2023-06-14T00:46:11;3.30;;;1.92;;
42110;SDS011;27766;52.174;5.456;2023-06-14T00:48:38;3.20;;;1.83;;
42110;SDS011;27766;52.174;5.456;2023-06-14T00:51:07;6.57;;;2.30;;
42110;SDS011;27766;52.174;5.456;2023-06-14T00:53:34;6.53;;;2.13;;
42110;SDS011;27766;52.174;5.456;2023-06-14T00:56:03;3.08;;;1.85;;
42110;SDS011;27766;52.174;5.456;2023-06-14T00:58:30;5.65;;;1.98;;
42110;SDS011;27766;52.174;5.456;2023-06-14T01:00:59;4.18;;;2.03;;
42110;SDS011;27766;52.174;5.456;2023-06-14T01:03:26;2.95;;;1.95;;
42110;SDS011;27766;52.174;5.456;2023-06-14T01:11:56;3.30;;;1.73;;
42110;SDS011;27766;52.174;5.456;2023-06-14T01:14:40;7.82;;;1.98;;
42110;SDS011;27766;52.174;5.456;2023-06-14T01:17:08;2.70;;;1.85;;
42110;SDS011;27766;52.174;5.456;2023-06-14T01:19:43;5.95;;;1.90;;
42110;SDS011;27766;52.174;5.456;2023-06-14T01:22:12;4.43;;;1.83;;
42110;SDS011;27766;52.174;5.456;2023-06-14T01:24:40;3.08;;;1.80;;
42110;SDS011;27766;52.174;5.456;2023-06-14T01:27:11;3.17;;;2.08;;
42110;SDS011;27766;52.174;5.456;2023-06-14T01:29:40;7.43;;;2.15;;
42110;SDS011;27766;52.174;5.456;2023-06-14T01:32:12;5.10;;;1.67;;
42110;SDS011;27766;52.174;5.456;2023-06-14T01:34:40;7.75;;;1.98;;
42110;SDS011;27766;52.174;5.456;2023-06-14T01:37:09;10.38;;;2.28;;
42110;SDS011;27766;52.174;5.456;2023-06-14T01:39:38;5.90;;;2.10;;
42110;SDS011;27766;52.174;5.456;2023-06-14T01:42:07;2.95;;;2.00;;
42110;SDS011;27766;52.174;5.456;2023-06-14T01:44:34;4.18;;;1.77;;
42110;SDS011;27766;52.174;5.456;2023-06-14T01:47:02;5.57;;;2.22;;
42110;SDS011;27766;52.174;5.456;2023-06-14T01:49:29;3.78;;;2.13;;
42110;SDS011;27766;52.174;5.456;2023-06-14T01:52:01;3.40;;;1.95;;
42110;SDS011;27766;52.174;5.456;2023-06-14T01:54:28;3.70;;;1.90;;
42110;SDS011;27766;52.174;5.456;2023-06-14T01:56:56;2.78;;;1.52;;
42110;SDS011;27766;52.174;5.456;2023-06-14T01:59:24;5.85;;;2.05;;
42110;SDS011;27766;52.174;5.456;2023-06-14T02:01:52;5.45;;;2.38;;
42110;SDS011;27766;52.174;5.456;2023-06-14T02:04:19;3.58;;;2.00;;
42110;SDS011;27766;52.174;5.456;2023-06-14T02:06:47;3.47;;;1.73;;
42110;SDS011;27766;52.174;5.456;2023-06-14T02:09:14;8.88;;;2.10;;
42110;SDS011;27766;52.174;5.456;2023-06-14T02:11:42;3.80;;;2.33;;
42110;SDS011;27766;52.174;5.456;2023-06-14T02:14:09;5.72;;;2.40;;
42110;SDS011;27766;52.174;5.456;2023-06-14T02:16:38;2.97;;;1.80;;
42110;SDS011;27766;52.174;5.456;2023-06-14T02:19:06;4.47;;;2.28;;
42110;SDS011;27766;52.174;5.456;2023-06-14T02:21:33;5.78;;;1.77;;
42110;SDS011;27766;52.174;5.456;2023-06-14T02:24:01;2.80;;;1.70;;
42110;SDS011;27766;52.174;5.456;2023-06-14T02:26:28;5.10;;;1.98;;
42110;SDS011;27766;52.174;5.456;2023-06-14T02:28:55;2.80;;;1.85;;
42110;SDS011;27766;52.174;5.456;2023-06-14T02:31:23;3.28;;;2.00;;
42110;SDS011;27766;52.174;5.456;2023-06-14T02:33:50;2.38;;;1.38;;
42110;SDS011;27766;52.174;5.456;2023-06-14T02:36:17;4.00;;;2.10;;
42110;SDS011;27766;52.174;5.456;2023-06-14T02:38:45;5.00;;;2.13;;
42110;SDS011;27766;52.174;5.456;2023-06-14T02:41:13;2.92;;;1.88;;
42110;SDS011;27766;52.174;5.456;2023-06-14T02:43:41;3.53;;;1.85;;
42110;SDS011;27766;52.174;5.456;2023-06-14T02:46:08;4.50;;;2.03;;
42110;SDS011;27766;52.174;5.456;2023-06-14T02:48:36;3.08;;;2.08;;
42110;SDS011;27766;52.174;5.456;2023-06-14T02:51:03;3.22;;;1.55;;
42110;SDS011;27766;52.174;5.456;2023-06-14T02:53:31;2.33;;;1.67;;
42110;SDS011;27766;52.174;5.456;2023-06-14T02:55:58;2.67;;;1.80;;
42110;SDS011;27766;52.174;5.456;2023-06-14T02:58:26;2.05;;;1.75;;
42110;SDS011;27766;52.174;5.456;2023-06-14T03:00:54;2.63;;;1.90;;
42110;SDS011;27766;52.174;5.456;2023-06-14T03:03:21;6.03;;;2.22;;
42110;SDS011;27766;52.174;5.456;2023-06-14T03:05:51;4.85;;;1.92;;
42110;SDS011;27766;52.174;5.456;2023-06-14T03:08:19;3.55;;;1.92;;
42110;SDS011;27766;52.174;5.456;2023-06-14T03:10:46;3.88;;;2.30;;
42110;SDS011;27766;52.174;5.456;2023-06-14T03:13:16;4.85;;;1.95;;
42110;SDS011;27766;52.174;5.456;2023-06-14T03:15:44;3.20;;;1.98;;
42110;SDS011;27766;52.174;5.456;2023-06-14T03:18:11;4.60;;;2.28;;
42110;SDS011;27766;52.174;5.456;2023-06-14T03:20:39;2.50;;;2.03;;
42110;SDS011;27766;52.174;5.456;2023-06-14T03:23:06;3.92;;;2.03;;
42110;SDS011;27766;52.174;5.456;2023-06-14T03:25:33;5.40;;;1.70;;
42110;SDS011;27766;52.174;5.456;2023-06-14T03:28:02;4.43;;;1.85;;
42110;SDS011;27766;52.174;5.456;2023-06-14T03:30:30;6.13;;;2.08;;
42110;SDS011;27766;52.174;5.456;2023-06-14T03:32:58;4.05;;;2.30;;
42110;SDS011;27766;52.174;5.456;2023-06-14T03:35:28;4.00;;;1.92;;
42110;SDS011;27766;52.174;5.456;2023-06-14T03:37:55;3.40;;;1.52;;
42110;SDS011;27766;52.174;5.456;2023-06-14T03:40:23;3.35;;;1.90;;
42110;SDS011;27766;52.174;5.456;2023-06-14T03:42:55;5.60;;;2.25;;
42110;SDS011;27766;52.174;5.456;2023-06-14T03:45:23;2.05;;;1.60;;
42110;SDS011;27766;52.174;5.456;2023-06-14T03:47:50;6.25;;;1.70;;
42110;SDS011;27766;52.174;5.456;2023-06-14T03:50:18;5.65;;;1.98;;
42110;SDS011;27766;52.174;5.456;2023-06-14T03:52:47;6.93;;;2.30;;
42110;SDS011;27766;52.174;5.456;2023-06-14T03:55:15;5.65;;;2.05;;
42110;SDS011;27766;52.174;5.456;2023-06-14T03:57:46;3.95;;;1.80;;
42110;SDS011;27766;52.174;5.456;2023-06-14T04:00:13;3.10;;;2.10;;
42110;SDS011;27766;52.174;5.456;2023-06-14T04:02:42;6.47;;;2.10;;
42110;SDS011;27766;52.174;5.456;2023-06-14T04:05:11;5.25;;;2.10;;
42110;SDS011;27766;52.174;5.456;2023-06-14T04:07:39;5.10;;;2.40;;
42110;SDS011;27766;52.174;5.456;2023-06-14T04:10:12;3.95;;;1.77;;
42110;SDS011;27766;52.174;5.456;2023-06-14T04:12:40;2.53;;;1.90;;
42110;SDS011;27766;52.174;5.456;2023-06-14T04:15:09;3.90;;;2.30;;
42110;SDS011;27766;52.174;5.456;2023-06-14T04:17:46;4.03;;;2.50;;
42110;SDS011;27766;52.174;5.456;2023-06-14T04:20:14;3.72;;;1.73;;
42110;SDS011;27766;52.174;5.456;2023-06-14T04:22:41;3.63;;;2.20;;
42110;SDS011;27766;52.174;5.456;2023-06-14T04:25:10;5.90;;;1.85;;
42110;SDS011;27766;52.174;5.456;2023-06-14T04:27:41;3.25;;;1.77;;
42110;SDS011;27766;52.174;5.456;2023-06-14T04:30:09;4.35;;;2.20;;
42110;SDS011;27766;52.174;5.456;2023-06-14T04:32:37;3.50;;;1.75;;
42110;SDS011;27766;52.174;5.456;2023-06-14T04:35:06;3.88;;;2.15;;
42110;SDS011;27766;52.174;5.456;2023-06-14T04:37:35;2.85;;;2.20;;
42110;SDS011;27766;52.174;5.456;2023-06-14T04:40:07;4.30;;;2.22;;
42110;SDS011;27766;52.174;5.456;2023-06-14T04:42:38;4.43;;;1.88;;
42110;SDS011;27766;52.174;5.456;2023-06-14T04:45:07;4.90;;;2.40;;
42110;SDS011;27766;52.174;5.456;2023-06-14T04:47:36;3.08;;;1.90;;
42110;SDS011;27766;52.174;5.456;2023-06-14T04:50:04;4.50;;;2.00;;
42110;SDS011;27766;52.174;5.456;2023-06-14T04:52:32;11.60;;;2.00;;
42110;SDS011;27766;52.174;5.456;2023-06-14T04:54:59;2.55;;;1.88;;
42110;SDS011;27766;52.174;5.456;2023-06-14T04:57:27;3.78;;;2.35;;
42110;SDS011;27766;52.174;5.456;2023-06-14T04:59:54;3.80;;;2.20;;
42110;SDS011;27766;52.174;5.456;2023-06-14T05:02:22;4.90;;;2.10;;
42110;SDS011;27766;52.174;5.456;2023-06-14T05:04:51;3.10;;;1.77;;
42110;SDS011;27766;52.174;5.456;2023-06-14T05:07:19;3.33;;;1.88;;
42110;SDS011;27766;52.174;5.456;2023-06-14T05:09:47;2.58;;;1.70;;
42110;SDS011;27766;52.174;5.456;2023-06-14T05:12:14;3.28;;;1.75;;
42110;SDS011;27766;52.174;5.456;2023-06-14T05:14:45;3.45;;;2.30;;
42110;SDS011;27766;52.174;5.456;2023-06-14T05:17:12;5.80;;;2.05;;
42110;SDS011;27766;52.174;5.456;2023-06-14T05:19:40;9.80;;;2.33;;
42110;SDS011;27766;52.174;5.456;2023-06-14T05:22:08;4.97;;;1.80;;
42110;SDS011;27766;52.174;5.456;2023-06-14T05:24:36;9.05;;;2.47;;
42110;SDS011;27766;52.174;5.456;2023-06-14T05:27:03;5.50;;;2.28;;
42110;SDS011;27766;52.174;5.456;2023-06-14T05:29:31;2.90;;;2.00;;
42110;SDS011;27766;52.174;5.456;2023-06-14T05:31:58;8.13;;;2.08;;
42110;SDS011;27766;52.174;5.456;2023-06-14T05:34:26;5.75;;;2.15;;
42110;SDS011;27766;52.174;5.456;2023-06-14T05:36:54;8.45;;;2.20;;
42110;SDS011;27766;52.174;5.456;2023-06-14T05:39:22;5.55;;;1.77;;
42110;SDS011;27766;52.174;5.456;2023-06-14T05:41:50;5.78;;;2.60;;
42110;SDS011;27766;52.174;5.456;2023-06-14T05:44:18;5.88;;;2.28;;
42110;SDS011;27766;52.174;5.456;2023-06-14T05:46:45;3.55;;;2.13;;
42110;SDS011;27766;52.174;5.456;2023-06-14T05:49:12;6.05;;;2.30;;
42110;SDS011;27766;52.174;5.456;2023-06-14T05:51:40;4.05;;;2.28;;
42110;SDS011;27766;52.174;5.456;2023-06-14T05:54:07;9.73;;;2.63;;
42110;SDS011;27766;52.174;5.456;2023-06-14T05:56:35;9.20;;;2.45;;
42110;SDS011;27766;52.174;5.456;2023-06-14T05:59:02;12.57;;;2.35;;
42110;SDS011;27766;52.174;5.456;2023-06-14T06:01:29;6.00;;;2.15;;
42110;SDS011;27766;52.174;5.456;2023-06-14T06:03:57;7.07;;;2.30;;
42110;SDS011;27766;52.174;5.456;2023-06-14T06:06:25;5.30;;;2.42;;
42110;SDS011;27766;52.174;5.456;2023-06-14T06:08:52;2.85;;;1.95;;
42110;SDS011;27766;52.174;5.456;2023-06-14T06:11:19;2.30;;;1.70;;
42110;SDS011;27766;52.174;5.456;2023-06-14T06:13:47;6.53;;;2.13;;
42110;SDS011;27766;52.174;5.456;2023-06-14T06:16:14;2.88;;;1.90;;
42110;SDS011;27766;52.174;5.456;2023-06-14T06:18:42;2.22;;;1.63;;
42110;SDS011;27766;52.174;5.456;2023-06-14T06:21:11;3.92;;;2.33;;
42110;SDS011;27766;52.174;5.456;2023-06-14T06:23:39;3.33;;;2.33;;
42110;SDS011;27766;52.174;5.456;2023-06-14T06:26:07;3.85;;;1.88;;
42110;SDS011;27766;52.174;5.456;2023-06-14T06:28:34;2.35;;;1.88;;
42110;SDS011;27766;52.174;5.456;2023-06-14T06:31:01;7.63;;;2.83;;
42110;SDS011;27766;52.174;5.456;2023-06-14T06:33:31;3.28;;;2.03;;
42110;SDS011;27766;52.174;5.456;2023-06-14T06:35:58;3.22;;;2.03;;
42110;SDS011;27766;52.174;5.456;2023-06-14T06:38:25;4.90;;;1.80;;
42110;SDS011;27766;52.174;5.456;2023-06-14T06:40:53;5.75;;;2.30;;
42110;SDS011;27766;52.174;5.456;2023-06-14T06:43:21;2.83;;;1.90;;
42110;SDS011;27766;52.174;5.456;2023-06-14T06:45:48;4.10;;;1.88;;
42110;SDS011;27766;52.174;5.456;2023-06-14T06:48:16;3.85;;;1.98;;
42110;SDS011;27766;52.174;5.456;2023-06-14T06:50:43;8.75;;;2.45;;
42110;SDS011;27766;52.174;5.456;2023-06-14T06:53:11;1.98;;;1.60;;
42110;SDS011;27766;52.174;5.456;2023-06-14T06:55:41;2.53;;;1.98;;
42110;SDS011;27766;52.174;5.456;2023-06-14T06:58:08;5.40;;;2.08;;
42110;SDS011;27766;52.174;5.456;2023-06-14T07:00:36;4.28;;;2.13;;
42110;SDS011;27766;52.174;5.456;2023-06-14T07:03:03;9.15;;;1.80;;
42110;SDS011;27766;52.174;5.456;2023-06-14T07:05:31;3.78;;;1.83;;
42110;SDS011;27766;52.174;5.456;2023-06-14T07:07:59;3.17;;;1.98;;
42110;SDS011;27766;52.174;5.456;2023-06-14T07:10:27;3.28;;;2.05;;
42110;SDS011;27766;52.174;5.456;2023-06-14T07:12:54;4.47;;;2.20;;
42110;SDS011;27766;52.174;5.456;2023-06-14T07:15:21;3.60;;;2.13;;
42110;SDS011;27766;52.174;5.456;2023-06-14T07:17:49;5.22;;;2.00;;
42110;SDS011;27766;52.174;5.456;2023-06-14T07:20:17;5.32;;;2.15;;
42110;SDS011;27766;52.174;5.456;2023-06-14T07:22:45;6.65;;;1.58;;
42110;SDS011;27766;52.174;5.456;2023-06-14T07:25:12;6.53;;;1.90;;
42110;SDS011;27766;52.174;5.456;2023-06-14T07:27:43;2.92;;;1.55;;
42110;SDS011;27766;52.174;5.456;2023-06-14T07:30:12;3.17;;;2.03;;
42110;SDS011;27766;52.174;5.456;2023-06-14T07:32:39;2.75;;;1.45;;
42110;SDS011;27766;52.174;5.456;2023-06-14T07:35:07;3.40;;;1.58;;
42110;SDS011;27766;52.174;5.456;2023-06-14T07:37:35;6.57;;;1.90;;
42110;SDS011;27766;52.174;5.456;2023-06-14T07:40:03;1.90;;;1.50;;
42110;SDS011;27766;52.174;5.456;2023-06-14T07:42:34;8.45;;;1.60;;
42110;SDS011;27766;52.174;5.456;2023-06-14T07:45:03;2.47;;;1.38;;
42110;SDS011;27766;52.174;5.456;2023-06-14T07:47:31;4.13;;;1.60;;
42110;SDS011;27766;52.174;5.456;2023-06-14T07:49:59;5.90;;;1.48;;
42110;SDS011;27766;52.174;5.456;2023-06-14T07:52:26;9.80;;;1.38;;
42110;SDS011;27766;52.174;5.456;2023-06-14T07:54:57;3.47;;;1.27;;
42110;SDS011;27766;52.174;5.456;2023-06-14T07:57:25;2.05;;;1.20;;
42110;SDS011;27766;52.174;5.456;2023-06-14T07:59:52;5.32;;;1.30;;
42110;SDS011;27766;52.174;5.456;2023-06-14T08:02:19;3.25;;;1.30;;
42110;SDS011;27766;52.174;5.456;2023-06-14T08:04:47;2.55;;;1.30;;
42110;SDS011;27766;52.174;5.456;2023-06-14T08:07:15;2.28;;;1.00;;
42110;SDS011;27766;52.174;5.456;2023-06-14T08:09:42;5.25;;;1.20;;
42110;SDS011;27766;52.174;5.456;2023-06-14T08:12:10;1.30;;;1.00;;
42110;SDS011;27766;52.174;5.456;2023-06-14T08:14:39;2.55;;;0.95;;
42110;SDS011;27766;52.174;5.456;2023-06-14T08:17:06;2.70;;;1.20;;
42110;SDS011;27766;52.174;5.456;2023-06-14T08:19:34;4.15;;;1.23;;
42110;SDS011;27766;52.174;5.456;2023-06-14T08:22:02;2.88;;;1.33;;
42110;SDS011;27766;52.174;5.456;2023-06-14T08:24:30;4.80;;;1.60;;
42110;SDS011;27766;52.174;5.456;2023-06-14T08:26:58;1.20;;;0.98;;
42110;SDS011;27766;52.174;5.456;2023-06-14T08:29:27;1.88;;;1.10;;
42110;SDS011;27766;52.174;5.456;2023-06-14T08:31:59;1.48;;;1.02;;
42110;SDS011;27766;52.174;5.456;2023-06-14T08:34:27;7.25;;;1.33;;
42110;SDS011;27766;52.174;5.456;2023-06-14T08:36:54;1.20;;;0.80;;
42110;SDS011;27766;52.174;5.456;2023-06-14T08:39:21;2.03;;;1.25;;
42110;SDS011;27766;52.174;5.456;2023-06-14T08:41:49;1.98;;;1.00;;
42110;SDS011;27766;52.174;5.456;2023-06-14T08:44:18;1.65;;;1.10;;
42110;SDS011;27766;52.174;5.456;2023-06-14T08:46:45;2.72;;;1.33;;
42110;SDS011;27766;52.174;5.456;2023-06-14T08:49:16;0.85;;;0.73;;
42110;SDS011;27766;52.174;5.456;2023-06-14T08:51:44;1.92;;;1.30;;
42110;SDS011;27766;52.174;5.456;2023-06-14T08:54:14;2.35;;;0.82;;
42110;SDS011;27766;52.174;5.456;2023-06-14T08:56:42;4.50;;;0.93;;
42110;SDS011;27766;52.174;5.456;2023-06-14T08:59:10;1.40;;;0.90;;
42110;SDS011;27766;52.174;5.456;2023-06-14T09:01:39;3.15;;;1.02;;
42110;SDS011;27766;52.174;5.456;2023-06-14T09:04:12;2.15;;;1.23;;
42110;SDS011;27766;52.174;5.456;2023-06-14T09:06:39;1.55;;;0.75;;
42110;SDS011;27766;52.174;5.456;2023-06-14T09:09:08;1.98;;;0.88;;
42110;SDS011;27766;52.174;5.456;2023-06-14T09:11:36;1.08;;;0.75;;
42110;SDS011;27766;52.174;5.456;2023-06-14T09:14:03;1.38;;;1.00;;
42110;SDS011;27766;52.174;5.456;2023-06-14T09:16:32;1.40;;;0.82;;
42110;SDS011;27766;52.174;5.456;2023-06-14T09:19:00;4.03;;;1.35;;
42110;SDS011;27766;52.174;5.456;2023-06-14T09:21:27;1.27;;;1.00;;
42110;SDS011;27766;52.174;5.456;2023-06-14T09:23:57;1.17;;;0.70;;
42110;SDS011;27766;52.174;5.456;2023-06-14T09:26:27;1.60;;;1.00;;
42110;SDS011;27766;52.174;5.456;2023-06-14T09:28:54;5.55;;;0.95;;
42110;SDS011;27766;52.174;5.456;2023-06-14T09:31:22;1.38;;;0.90;;
42110;SDS011;27766;52.174;5.456;2023-06-14T09:33:49;0.82;;;0.80;;
42110;SDS011;27766;52.174;5.456;2023-06-14T09:36:18;1.48;;;1.08;;
42110;SDS011;27766;52.174;5.456;2023-06-14T09:41:20;0.98;;;0.85;;
42110;SDS011;27766;52.174;5.456;2023-06-14T09:43:47;2.40;;;0.93;;
42110;SDS011;27766;52.174;5.456;2023-06-14T09:46:16;0.65;;;0.65;;
42110;SDS011;27766;52.174;5.456;2023-06-14T09:48:45;1.75;;;1.05;;
42110;SDS011;27766;52.174;5.456;2023-06-14T09:51:13;1.63;;;0.80;;
42110;SDS011;27766;52.174;5.456;2023-06-14T09:53:42;3.42;;;1.13;;
42110;SDS011;27766;52.174;5.456;2023-06-14T09:56:10;2.75;;;0.95;;
42110;SDS011;27766;52.174;5.456;2023-06-14T09:58:39;1.70;;;0.98;;
42110;SDS011;27766;52.174;5.456;2023-06-14T10:01:08;5.47;;;0.95;;
42110;SDS011;27766;52.174;5.456;2023-06-14T10:03:36;1.10;;;0.82;;
42110;SDS011;27766;52.174;5.456;2023-06-14T10:06:26;1.25;;;0.90;;
42110;SDS011;27766;52.174;5.456;2023-06-14T10:08:57;2.22;;;0.90;;
42110;SDS011;27766;52.174;5.456;2023-06-14T10:11:26;1.88;;;1.10;;
42110;SDS011;27766;52.174;5.456;2023-06-14T10:13:55;2.13;;;0.98;;
42110;SDS011;27766;52.174;5.456;2023-06-14T10:16:27;1.45;;;1.05;;
42110;SDS011;27766;52.174;5.456;2023-06-14T10:24:28;2.80;;;1.20;;
42110;SDS011;27766;52.174;5.456;2023-06-14T10:26:58;1.65;;;0.90;;
42110;SDS011;27766;52.174;5.456;2023-06-14T10:29:27;0.93;;;0.65;;
42110;SDS011;27766;52.174;5.456;2023-06-14T10:32:00;1.83;;;1.20;;
42110;SDS011;27766;52.174;5.456;2023-06-14T10:34:28;2.00;;;1.05;;
42110;SDS011;27766;52.174;5.456;2023-06-14T10:39:31;1.80;;;0.85;;
42110;SDS011;27766;52.174;5.456;2023-06-14T10:42:07;1.63;;;0.68;;
42110;SDS011;27766;52.174;5.456;2023-06-14T10:44:39;3.25;;;0.93;;
42110;SDS011;27766;52.174;5.456;2023-06-14T10:52:29;1.13;;;0.88;;
42110;SDS011;27766;52.174;5.456;2023-06-14T10:55:09;1.48;;;0.70;;
42110;SDS011;27766;52.174;5.456;2023-06-14T10:57:43;1.48;;;0.73;;
42110;SDS011;27766;52.174;5.456;2023-06-14T11:00:20;1.40;;;0.93;;
42110;SDS011;27766;52.174;5.456;2023-06-14T11:11:05;2.08;;;1.20;;
42110;SDS011;27766;52.174;5.456;2023-06-14T11:13:38;1.13;;;0.77;;
42110;SDS011;27766;52.174;5.456;2023-06-14T11:16:12;1.83;;;1.00;;
42110;SDS011;27766;52.174;5.456;2023-06-14T11:18:41;1.30;;;1.02;;
42110;SDS011;27766;52.174;5.456;2023-06-14T11:21:09;2.80;;;0.98;;
42110;SDS011;27766;52.174;5.456;2023-06-14T11:23:48;1.50;;;0.77;;
42110;SDS011;27766;52.174;5.456;2023-06-14T11:26:29;1.75;;;1.02;;
42110;SDS011;27766;52.174;5.456;2023-06-14T11:28:58;4.45;;;1.70;;
42110;SDS011;27766;52.174;5.456;2023-06-14T11:31:27;1.50;;;0.90;;
42110;SDS011;27766;52.174;5.456;2023-06-14T11:33:55;1.92;;;1.08;;
42110;SDS011;27766;52.174;5.456;2023-06-14T11:36:27;2.05;;;1.15;;
42110;SDS011;27766;52.174;5.456;2023-06-14T11:39:02;2.40;;;1.00;;
42110;SDS011;27766;52.174;5.456;2023-06-14T11:41:37;0.85;;;0.65;;
42110;SDS011;27766;52.174;5.456;2023-06-14T11:44:12;3.08;;;1.15;;
42110;SDS011;27766;52.174;5.456;2023-06-14T11:46:39;1.50;;;0.93;;
42110;SDS011;27766;52.174;5.456;2023-06-14T11:49:07;1.25;;;1.02;;
42110;SDS011;27766;52.174;5.456;2023-06-14T11:51:37;1.50;;;0.80;;
42110;SDS011;27766;52.174;5.456;2023-06-14T11:54:05;1.88;;;1.10;;
42110;SDS011;27766;52.174;5.456;2023-06-14T11:56:34;7.30;;;1.90;;
42110;SDS011;27766;52.174;5.456;2023-06-14T11:59:05;4.38;;;1.25;;
42110;SDS011;27766;52.174;5.456;2023-06-14T12:01:35;1.88;;;1.08;;
42110;SDS011;27766;52.174;5.456;2023-06-14T12:04:04;2.35;;;1.10;;
42110;SDS011;27766;52.174;5.456;2023-06-14T12:06:31;1.75;;;1.00;;
42110;SDS011;27766;52.174;5.456;2023-06-14T12:09:07;1.90;;;1.20;;
42110;SDS011;27766;52.174;5.456;2023-06-14T12:11:39;1.20;;;0.95;;
42110;SDS011;27766;52.174;5.456;2023-06-14T12:14:08;2.03;;;1.17;;
42110;SDS011;27766;52.174;5.456;2023-06-14T12:16:39;2.20;;;1.15;;
42110;SDS011;27766;52.174;5.456;2023-06-14T12:19:14;1.27;;;1.02;;
42110;SDS011;27766;52.174;5.456;2023-06-14T12:21:47;2.47;;;0.85;;
42110;SDS011;27766;52.174;5.456;2023-06-14T12:24:18;2.22;;;1.08;;
42110;SDS011;27766;52.174;5.456;2023-06-14T12:26:45;6.53;;;1.27;;
42110;SDS011;27766;52.174;5.456;2023-06-14T12:29:13;2.20;;;0.90;;
42110;SDS011;27766;52.174;5.456;2023-06-14T12:31:41;5.63;;;1.55;;
42110;SDS011;27766;52.174;5.456;2023-06-14T12:34:09;2.25;;;0.82;;
42110;SDS011;27766;52.174;5.456;2023-06-14T12:36:36;2.00;;;1.10;;
42110;SDS011;27766;52.174;5.456;2023-06-14T12:39:12;1.60;;;1.08;;
42110;SDS011;27766;52.174;5.456;2023-06-14T12:41:39;3.38;;;0.93;;
42110;SDS011;27766;52.174;5.456;2023-06-14T12:44:09;3.13;;;1.48;;
42110;SDS011;27766;52.174;5.456;2023-06-14T12:46:37;1.55;;;1.08;;
42110;SDS011;27766;52.174;5.456;2023-06-14T12:49:07;1.60;;;1.20;;
42110;SDS011;27766;52.174;5.456;2023-06-14T12:51:39;1.48;;;0.98;;
42110;SDS011;27766;52.174;5.456;2023-06-14T12:54:07;0.80;;;0.63;;
42110;SDS011;27766;52.174;5.456;2023-06-14T12:56:34;2.03;;;1.17;;
42110;SDS011;27766;52.174;5.456;2023-06-14T12:59:02;1.55;;;1.05;;
42110;SDS011;27766;52.174;5.456;2023-06-14T13:01:29;1.55;;;1.02;;
42110;SDS011;27766;52.174;5.456;2023-06-14T13:03:56;2.20;;;1.55;;
42110;SDS011;27766;52.174;5.456;2023-06-14T13:06:24;6.38;;;1.10;;
42110;SDS011;27766;52.174;5.456;2023-06-14T13:08:52;1.83;;;0.80;;
42110;SDS011;27766;52.174;5.456;2023-06-14T13:11:21;2.33;;;0.93;;
42110;SDS011;27766;52.174;5.456;2023-06-14T13:13:49;1.70;;;1.15;;
42110;SDS011;27766;52.174;5.456;2023-06-14T13:16:16;1.52;;;1.08;;
42110;SDS011;27766;52.174;5.456;2023-06-14T13:18:43;2.13;;;1.35;;
42110;SDS011;27766;52.174;5.456;2023-06-14T13:21:10;1.20;;;0.70;;
42110;SDS011;27766;52.174;5.456;2023-06-14T13:23:41;1.38;;;1.10;;
42110;SDS011;27766;52.174;5.456;2023-06-14T13:26:08;1.55;;;0.95;;
42110;SDS011;27766;52.174;5.456;2023-06-14T13:28:36;2.25;;;1.10;;
42110;SDS011;27766;52.174;5.456;2023-06-14T13:31:04;1.80;;;0.95;;
42110;SDS011;27766;52.174;5.456;2023-06-14T13:33:31;1.38;;;1.00;;
42110;SDS011;27766;52.174;5.456;2023-06-14T13:35:59;1.90;;;1.15;;
42110;SDS011;27766;52.174;5.456;2023-06-14T13:38:26;1.92;;;1.20;;
42110;SDS011;27766;52.174;5.456;2023-06-14T13:40:54;2.08;;;1.08;;
42110;SDS011;27766;52.174;5.456;2023-06-14T13:43:22;1.77;;;0.88;;
42110;SDS011;27766;52.174;5.456;2023-06-14T13:45:49;2.60;;;1.05;;
42110;SDS011;27766;52.174;5.456;2023-06-14T13:48:17;4.90;;;0.95;;
42110;SDS011;27766;52.174;5.456;2023-06-14T13:50:45;1.08;;;0.77;;
42110;SDS011;27766;52.174;5.456;2023-06-14T13:53:13;1.83;;;1.13;;
42110;SDS011;27766;52.174;5.456;2023-06-14T13:55:41;1.73;;;1.42;;
42110;SDS011;27766;52.174;5.456;2023-06-14T13:58:08;2.00;;;1.05;;
42110;SDS011;27766;52.174;5.456;2023-06-14T14:00:36;3.13;;;1.10;;
42110;SDS011;27766;52.174;5.456;2023-06-14T14:03:07;1.40;;;1.00;;
42110;SDS011;27766;52.174;5.456;2023-06-14T14:05:35;1.13;;;1.00;;
42110;SDS011;27766;52.174;5.456;2023-06-14T14:08:03;3.67;;;1.27;;
42110;SDS011;27766;52.174;5.456;2023-06-14T14:10:30;3.47;;;0.88;;
42110;SDS011;27766;52.174;5.456;2023-06-14T14:12:58;4.68;;;1.35;;
42110;SDS011;27766;52.174;5.456;2023-06-14T14:15:25;1.98;;;1.13;;
42110;SDS011;27766;52.174;5.456;2023-06-14T14:17:52;1.80;;;1.00;;
42110;SDS011;27766;52.174;5.456;2023-06-14T14:20:21;0.80;;;0.70;;
42110;SDS011;27766;52.174;5.456;2023-06-14T14:22:48;2.70;;;1.30;;
42110;SDS011;27766;52.174;5.456;2023-06-14T14:25:16;3.15;;;0.82;;
42110;SDS011;27766;52.174;5.456;2023-06-14T14:27:43;3.88;;;1.10;;
42110;SDS011;27766;52.174;5.456;2023-06-14T14:30:10;2.33;;;1.15;;
42110;SDS011;27766;52.174;5.456;2023-06-14T14:32:39;5.82;;;0.95;;
42110;SDS011;27766;52.174;5.456;2023-06-14T14:35:07;1.02;;;0.85;;
42110;SDS011;27766;52.174;5.456;2023-06-14T14:37:36;0.82;;;0.80;;
42110;SDS011;27766;52.174;5.456;2023-06-14T14:40:03;1.58;;;1.17;;
42110;SDS011;27766;52.174;5.456;2023-06-14T14:42:31;2.38;;;1.25;;
42110;SDS011;27766;52.174;5.456;2023-06-14T14:44:58;3.17;;;1.38;;
42110;SDS011;27766;52.174;5.456;2023-06-14T14:47:31;1.50;;;0.95;;
42110;SDS011;27766;52.174;5.456;2023-06-14T14:49:58;1.27;;;0.80;;
42110;SDS011;27766;52.174;5.456;2023-06-14T14:52:26;2.25;;;0.80;;
42110;SDS011;27766;52.174;5.456;2023-06-14T14:54:53;12.13;;;1.27;;
42110;SDS011;27766;52.174;5.456;2023-06-14T14:57:21;1.13;;;1.02;;
42110;SDS011;27766;52.174;5.456;2023-06-14T14:59:48;1.25;;;0.95;;
42110;SDS011;27766;52.174;5.456;2023-06-14T15:02:15;5.15;;;1.10;;
42110;SDS011;27766;52.174;5.456;2023-06-14T15:04:42;1.35;;;0.90;;
42110;SDS011;27766;52.174;5.456;2023-06-14T15:07:10;1.92;;;1.00;;
42110;SDS011;27766;52.174;5.456;2023-06-14T15:09:37;2.80;;;1.00;;
42110;SDS011;27766;52.174;5.456;2023-06-14T15:12:05;1.73;;;0.85;;
42110;SDS011;27766;52.174;5.456;2023-06-14T15:14:33;0.90;;;0.77;;
42110;SDS011;27766;52.174;5.456;2023-06-14T15:17:01;2.20;;;1.10;;
42110;SDS011;27766;52.174;5.456;2023-06-14T15:19:29;1.48;;;0.75;;
42110;SDS011;27766;52.174;5.456;2023-06-14T15:21:57;1.67;;;0.90;;
42110;SDS011;27766;52.174;5.456;2023-06-14T15:24:25;6.40;;;1.13;;
42110;SDS011;27766;52.174;5.456;2023-06-14T15:27:09;1.63;;;1.27;;